createdAt,value
2022-12-17T00:03:47.775Z,27.07
2022-12-17T00:08:20.465Z,26.98
2022-12-17T00:12:51.421Z,27.92
2022-12-17T00:17:23.217Z,25.60
2022-12-17T00:22:02.924Z,26.90
2022-12-17T00:26:35.767Z,27.00
2022-12-17T00:31:10.375Z,27.75
2022-12-17T00:35:41.755Z,25.10
2022-12-17T00:40:14.747Z,27.23
2022-12-17T00:44:47.425Z,28.95
2022-12-17T00:49:18.421Z,26.20
2022-12-17T00:53:49.486Z,26.67
2022-12-17T00:58:20.736Z,28.10
2022-12-17T01:02:53.322Z,27.23
2022-12-17T01:07:25.286Z,27.00
2022-12-17T01:12:35.191Z,26.55
2022-12-17T01:17:06.505Z,27.27
2022-12-17T01:21:39.814Z,24.00
2022-12-17T01:26:11.684Z,24.92
2022-12-17T01:30:43.932Z,27.50
2022-12-17T01:35:16.006Z,26.17
2022-12-17T01:39:49.559Z,20.63
2022-12-17T01:45:02.879Z,27.30
2022-12-17T01:49:34.733Z,27.67
2022-12-17T01:54:08.930Z,26.27
2022-12-17T01:58:41.550Z,27.50
2022-12-17T02:03:13.160Z,28.00
2022-12-17T02:07:56.523Z,28.60
2022-12-17T02:12:36.326Z,26.92
2022-12-17T02:17:15.423Z,29.13
2022-12-17T02:21:48.500Z,29.23
2022-12-17T02:26:24.337Z,27.77
2022-12-17T02:30:57.758Z,29.10
2022-12-17T02:35:33.653Z,26.65
2022-12-17T02:40:05.398Z,28.70
2022-12-17T02:44:40.170Z,28.17
2022-12-17T02:49:13.696Z,28.42
2022-12-17T02:53:45.682Z,29.07
2022-12-17T02:58:17.027Z,27.55
2022-12-17T03:02:48.771Z,29.30
2022-12-17T03:07:21.611Z,27.20
2022-12-17T03:11:53.082Z,24.88
2022-12-17T03:16:30.382Z,27.67
2022-12-17T03:21:05.192Z,28.33
2022-12-17T03:25:37.812Z,27.30
2022-12-17T03:30:08.883Z,27.83
2022-12-17T03:34:39.949Z,28.23
2022-12-17T03:39:11.333Z,27.67
2022-12-17T03:43:44.488Z,27.60
2022-12-17T03:48:24.120Z,28.40
2022-12-17T03:52:55.249Z,29.40
2022-12-17T03:57:26.483Z,27.48
2022-12-17T04:01:58.978Z,27.02
2022-12-17T04:06:30.430Z,27.33
2022-12-17T04:11:01.620Z,27.00
2022-12-17T04:15:29.246Z,28.67
2022-12-17T04:20:01.884Z,27.95
2022-12-17T04:24:33.352Z,28.87
2022-12-17T04:29:04.334Z,28.80
2022-12-17T04:33:35.814Z,30.50
2022-12-17T04:38:09.029Z,29.37
2022-12-17T04:42:40.317Z,29.70
2022-12-17T04:47:11.637Z,27.70
2022-12-17T04:51:43.808Z,28.50
2022-12-17T04:56:16.524Z,26.43
2022-12-17T05:00:47.443Z,26.60
2022-12-17T05:05:18.641Z,24.75
2022-12-17T05:09:49.759Z,23.37
2022-12-17T05:14:22.338Z,24.83
2022-12-17T05:18:53.739Z,26.60
2022-12-17T05:23:25.679Z,27.13
2022-12-17T05:27:56.812Z,25.38
2022-12-17T05:32:29.342Z,26.73
2022-12-17T05:37:00.420Z,28.23
2022-12-17T05:41:31.379Z,27.80
2022-12-17T05:46:03.543Z,28.83
2022-12-17T05:50:35.847Z,28.02
2022-12-17T05:55:07.681Z,28.13
2022-12-17T05:59:38.764Z,27.58
2022-12-17T06:04:10.524Z,27.35
2022-12-17T06:08:43.344Z,24.93
2022-12-17T06:13:15.107Z,26.48
2022-12-17T06:17:46.293Z,27.20
2022-12-17T06:22:17.381Z,28.10
2022-12-17T06:26:49.969Z,25.83
2022-12-17T06:31:32.562Z,26.25
2022-12-17T06:36:03.771Z,25.25
2022-12-17T06:40:35.720Z,22.97
2022-12-17T06:45:08.197Z,23.05
2022-12-17T06:49:39.673Z,22.65
2022-12-17T06:54:10.967Z,22.03
2022-12-17T06:58:42.218Z,16.80
2022-12-17T07:03:15.802Z,22.33
2022-12-17T07:07:47.040Z,23.58
2022-12-17T07:12:18.116Z,22.00
2022-12-17T07:16:49.740Z,21.40
2022-12-17T07:21:22.601Z,23.13
2022-12-17T07:25:53.776Z,23.83
2022-12-17T07:30:28.596Z,22.73
2022-12-17T07:34:59.572Z,25.55
2022-12-17T07:39:31.958Z,25.53
2022-12-17T07:44:03.546Z,24.40
2022-12-17T07:48:34.747Z,28.73
2022-12-17T07:53:05.759Z,27.75
2022-12-17T07:57:34.874Z,26.70
2022-12-17T08:02:06.451Z,24.85
2022-12-17T08:06:38.034Z,24.45
2022-12-17T08:11:09.335Z,26.30
2022-12-17T08:15:41.757Z,26.13
2022-12-17T08:20:12.933Z,24.25
2022-12-17T08:24:44.047Z,26.60
2022-12-17T08:29:20.736Z,25.70
2022-12-17T08:33:54.075Z,27.10
2022-12-17T08:38:25.774Z,40.03
2022-12-17T08:42:57.450Z,27.20
2022-12-17T08:47:28.469Z,26.48
2022-12-17T08:52:01.497Z,24.83
2022-12-17T08:56:32.503Z,26.47
2022-12-17T09:01:09.490Z,24.30
2022-12-17T09:05:40.747Z,25.23
2022-12-17T09:10:13.703Z,26.67
2022-12-17T09:14:59.551Z,25.40
2022-12-17T09:19:31.375Z,24.35
2022-12-17T09:24:02.441Z,23.27
2022-12-17T09:28:35.144Z,26.37
2022-12-17T09:33:20.820Z,24.98
2022-12-17T09:37:51.997Z,22.67
2022-12-17T09:42:28.134Z,21.10
2022-12-17T09:47:09.779Z,23.25
2022-12-17T09:51:42.823Z,22.73
2022-12-17T09:56:13.876Z,23.43
2022-12-17T10:00:47.322Z,21.80
2022-12-17T10:05:22.635Z,23.45
2022-12-17T10:09:54.462Z,23.65
2022-12-17T10:14:34.926Z,22.00
2022-12-17T10:19:09.200Z,23.52
2022-12-17T10:23:46.909Z,22.88
2022-12-17T10:28:20.546Z,23.90
2022-12-17T10:32:51.688Z,24.33
2022-12-17T10:37:24.432Z,24.27
2022-12-17T10:42:00.785Z,20.43
2022-12-17T10:46:42.214Z,24.25
2022-12-17T10:51:13.690Z,24.67
2022-12-17T10:55:47.295Z,24.42
2022-12-17T11:00:22.618Z,24.87
2022-12-17T11:04:56.095Z,24.20
2022-12-17T11:09:34.770Z,23.63
2022-12-17T11:14:08.438Z,25.53
2022-12-17T11:18:44.586Z,24.52
2022-12-17T11:23:18.078Z,25.05
2022-12-17T11:27:55.320Z,24.83
2022-12-17T11:33:00.865Z,24.50
2022-12-17T11:37:38.753Z,26.35
2022-12-17T11:42:18.535Z,23.60
2022-12-17T11:46:58.103Z,25.40
2022-12-17T11:51:36.732Z,24.05
2022-12-17T11:56:20.361Z,24.67
2022-12-17T12:01:00.374Z,22.37
2022-12-17T12:05:43.542Z,23.67
2022-12-17T12:10:19.238Z,24.15
2022-12-17T12:14:59.990Z,24.80
2022-12-17T12:19:41.498Z,21.92
2022-12-17T12:24:28.769Z,21.95
2022-12-17T12:29:06.468Z,23.55
2022-12-17T12:33:49.303Z,24.10
2022-12-17T12:38:21.992Z,23.08
2022-12-17T12:43:00.937Z,24.42
2022-12-17T12:47:40.949Z,22.17
2022-12-17T12:52:14.951Z,20.70
2022-12-17T12:56:48.617Z,21.20
2022-12-17T13:01:20.309Z,19.30
2022-12-17T13:05:39.595Z,18.33
2022-12-17T13:09:57.123Z,21.20
2022-12-17T13:14:18.900Z,20.42
2022-12-17T13:18:36.076Z,18.93
2022-12-17T13:22:52.458Z,19.98
2022-12-17T13:27:32.524Z,18.80
2022-12-17T13:31:56.135Z,18.17
2022-12-17T13:36:18.365Z,18.35
2022-12-17T13:40:43.449Z,17.50
2022-12-17T13:44:59.329Z,17.70
2022-12-17T13:49:21.109Z,20.05
2022-12-17T13:53:34.995Z,19.23
2022-12-17T13:57:50.294Z,19.20
2022-12-17T14:02:05.494Z,16.93
2022-12-17T14:06:19.679Z,18.90
2022-12-17T14:10:35.428Z,17.63
2022-12-17T14:14:52.392Z,20.00
2022-12-17T14:19:10.112Z,20.52
2022-12-17T14:23:30.063Z,20.65
2022-12-17T14:27:54.383Z,20.63
2022-12-17T14:32:24.802Z,20.10
2022-12-17T14:36:41.793Z,21.75
2022-12-17T14:40:56.043Z,21.52
2022-12-17T14:45:24.179Z,20.97
2022-12-17T14:49:55.838Z,21.00
2022-12-17T14:54:29.211Z,20.50
2022-12-17T14:58:46.973Z,22.53
2022-12-17T15:03:00.904Z,21.67
2022-12-17T15:07:19.874Z,20.23
2022-12-17T15:11:34.990Z,21.57
2022-12-17T15:15:48.815Z,18.65
2022-12-17T15:20:04.090Z,22.95
2022-12-17T15:24:22.041Z,22.40
2022-12-17T15:28:37.693Z,22.57
2022-12-17T15:32:54.129Z,23.55
2022-12-17T15:37:09.422Z,23.40
2022-12-17T15:41:39.677Z,25.03
2022-12-17T15:45:54.955Z,21.80
2022-12-17T15:50:10.301Z,23.98
2022-12-17T15:54:25.219Z,22.80
2022-12-17T15:58:39.413Z,15.25
2022-12-17T16:02:54.997Z,18.77
2022-12-17T16:07:08.989Z,22.45
2022-12-17T16:11:22.784Z,21.60
2022-12-17T16:15:36.915Z,23.38
2022-12-17T16:19:52.568Z,22.50
2022-12-17T16:24:07.196Z,22.70
2022-12-17T16:28:21.003Z,23.02
2022-12-17T16:32:36.627Z,23.88
2022-12-17T16:36:52.105Z,23.73
2022-12-17T16:41:06.298Z,24.30
2022-12-17T16:45:20.036Z,24.58
2022-12-17T16:49:34.172Z,24.05
2022-12-17T16:53:49.468Z,23.80
2022-12-17T16:58:03.130Z,26.20
2022-12-17T17:02:17.557Z,26.75
2022-12-17T17:06:33.770Z,23.70
2022-12-17T17:10:49.548Z,24.83
2022-12-17T17:15:03.212Z,27.55
2022-12-17T17:19:17.558Z,25.97
2022-12-17T17:23:31.722Z,28.25
2022-12-17T17:27:47.068Z,27.35
2022-12-17T17:32:10.290Z,28.60
2022-12-17T17:36:26.408Z,32.40
2022-12-17T17:40:40.215Z,32.63
2022-12-17T17:44:55.599Z,28.25
2022-12-17T17:49:10.617Z,30.20
2022-12-17T17:53:25.940Z,29.27
2022-12-17T17:57:39.703Z,23.83
2022-12-17T18:01:54.998Z,28.73
2022-12-17T18:06:11.984Z,31.10
2022-12-17T18:10:25.747Z,30.27
2022-12-17T18:14:46.779Z,29.60
2022-12-17T18:19:15.318Z,28.87
2022-12-17T18:23:29.023Z,29.35
2022-12-17T18:27:42.787Z,29.17
2022-12-17T18:31:56.790Z,31.60
2022-12-17T18:36:14.661Z,25.35
2022-12-17T18:40:33.103Z,36.05
2022-12-17T18:44:47.235Z,33.23
2022-12-17T18:49:02.802Z,35.70
2022-12-17T18:53:18.089Z,30.15
2022-12-17T18:57:32.177Z,38.58
2022-12-17T19:01:47.429Z,35.47
2022-12-17T19:06:05.978Z,28.80
2022-12-17T19:10:21.410Z,33.85
2022-12-17T19:14:35.778Z,36.10
2022-12-17T19:18:53.516Z,30.00
2022-12-17T19:23:07.330Z,32.75
2022-12-17T19:27:22.629Z,34.47
2022-12-17T19:31:36.620Z,36.00
2022-12-17T19:35:50.423Z,32.30
2022-12-17T19:40:05.396Z,31.77
2022-12-17T19:44:21.551Z,31.57
2022-12-17T19:48:37.211Z,32.30
2022-12-17T19:52:51.201Z,32.25
2022-12-17T19:57:05.250Z,30.77
2022-12-17T20:01:22.708Z,30.52
2022-12-17T20:05:36.527Z,29.80
2022-12-17T20:09:50.349Z,30.67
2022-12-17T20:14:07.540Z,30.35
2022-12-17T20:18:24.293Z,29.83
2022-12-17T20:22:38.116Z,29.40
2022-12-17T20:26:54.130Z,29.70
2022-12-17T20:31:08.616Z,28.20
2022-12-17T20:35:23.909Z,28.92
2022-12-17T20:39:38.155Z,29.20
2022-12-17T20:43:52.149Z,29.02
2022-12-17T20:48:06.411Z,26.98
2022-12-17T20:52:21.635Z,30.07
2022-12-17T20:56:36.310Z,27.23
2022-12-17T21:00:53.344Z,28.15
2022-12-17T21:05:08.025Z,27.52
2022-12-17T21:09:25.596Z,28.30
2022-12-17T21:13:39.520Z,27.30
2022-12-17T21:17:53.248Z,23.23
2022-12-17T21:22:07.122Z,25.07
2022-12-17T21:26:26.654Z,27.23
2022-12-17T21:30:40.637Z,26.00
2022-12-17T21:34:54.966Z,27.40
2022-12-17T21:39:09.936Z,25.55
2022-12-17T21:43:25.332Z,26.30
2022-12-17T21:47:39.054Z,27.77
2022-12-17T21:51:53.157Z,24.80
2022-12-17T21:56:08.888Z,24.75
2022-12-17T22:00:24.564Z,27.08
2022-12-17T22:04:38.693Z,26.33
2022-12-17T22:08:54.949Z,26.75
2022-12-17T22:13:29.601Z,25.77
2022-12-17T22:17:45.143Z,22.60
2022-12-17T22:21:58.964Z,25.27
2022-12-17T22:26:12.902Z,25.00
2022-12-17T22:30:44.016Z,26.37
2022-12-17T22:35:31.317Z,24.48
2022-12-17T22:42:27.365Z,24.73
2022-12-17T22:44:43.848Z,25.23
2022-12-17T22:48:41.507Z,25.15
2022-12-17T22:52:57.119Z,24.85
2022-12-17T22:57:34.542Z,26.17
2022-12-17T23:01:45.725Z,26.80
2022-12-17T23:06:07.979Z,23.70
2022-12-17T23:10:24.738Z,25.95
2022-12-17T23:14:38.509Z,10.52
2022-12-17T23:18:52.884Z,25.73
2022-12-17T23:23:06.723Z,24.05
2022-12-17T23:27:21.947Z,24.38
2022-12-17T23:31:37.675Z,25.13
2022-12-17T23:35:51.479Z,26.05
2022-12-17T23:40:06.699Z,25.60
2022-12-17T23:44:24.767Z,23.15
2022-12-17T23:48:45.084Z,23.57
2022-12-17T23:52:59.237Z,24.08
2022-12-17T23:57:13.019Z,22.48
